Time;durP1;ratioP1;P1;durP2;ratioP2;P2;SDS_P1;SDS_P2;PMS_P1;PMS_P2;Temp;Humidity;BMP_temperature;BMP_pressure;BME280_temperature;BME280_humidity;BME280_pressure;Samples;Min_cycle;Max_cycle;Signal;HPM_P1;HPM_P2
2023/03/25 00:00:57;;;;;;;;;1.00;0.00;;;;;10.76;66.88;100223.53;5074473;27;46459;-75
2023/03/25 00:03:26;;;;;;;;;0.50;0.50;;;;;10.74;66.42;100226.25;5074417;27;46295;-77
2023/03/25 00:05:53;;;;;;;;;0.25;0.00;;;;;10.76;66.92;100227.00;5074385;27;45668;-78
2023/03/25 00:08:20;;;;;;;;;3.75;0.25;;;;;10.70;66.84;100221.38;5090227;27;45962;-74
2023/03/25 00:10:55;;;;;;;;;1.00;0.00;;;;;10.75;67.50;100227.09;5074070;27;46476;-76
2023/03/25 00:13:22;;;;;;;;;2.00;0.25;;;;;10.67;67.29;100229.50;5074111;28;46171;-74
2023/03/25 00:19:08;;;;;;;;;1.00;0.50;;;;;10.71;67.33;100231.75;5066074;28;45749;-74
2023/03/25 00:21:34;;;;;;;;;0.00;0.00;;;;;10.68;67.02;100225.94;5074278;27;46636;-74
2023/03/25 00:23:59;;;;;;;;;0.00;0.00;;;;;10.70;66.90;100239.72;5072348;28;45659;-73
2023/03/25 00:26:28;;;;;;;;;1.75;0.00;;;;;10.77;67.42;100243.56;5074347;28;45607;-73
2023/03/25 00:28:54;;;;;;;;;0.00;0.00;;;;;10.76;67.05;100239.25;5074212;27;45764;-73
2023/03/25 00:31:20;;;;;;;;;0.00;0.00;;;;;10.77;67.27;100227.84;5073962;27;46673;-75
2023/03/25 00:33:45;;;;;;;;;1.25;0.00;;;;;10.66;67.08;100215.56;5073629;27;46370;-74
2023/03/25 00:36:13;;;;;;;;;0.25;0.00;;;;;10.76;67.01;100229.63;5074087;28;45604;-72
2023/03/25 00:38:40;;;;;;;;;1.00;1.00;;;;;10.76;67.14;100226.16;5073798;27;45534;-74
2023/03/25 00:41:13;;;;;;;;;1.00;0.00;;;;;10.81;67.30;100232.72;5073726;27;47413;-74
2023/03/25 00:43:39;;;;;;;;;1.00;0.00;;;;;10.71;67.07;100218.66;5077313;27;46419;-74
2023/03/25 00:49:27;;;;;;;;;1.00;0.00;;;;;10.81;67.49;100234.50;5077572;28;45670;-73
2023/03/25 00:51:54;;;;;;;;;3.00;0.00;;;;;10.79;67.36;100231.19;5077233;28;47278;-75
2023/03/25 00:54:21;;;;;;;;;0.25;0.00;;;;;10.73;67.58;100222.00;5077359;27;45992;-74
2023/03/25 00:56:47;;;;;;;;;2.00;0.50;;;;;10.85;67.64;100242.00;5077083;27;45832;-72
2023/03/25 00:59:12;;;;;;;;;3.00;0.00;;;;;10.81;67.30;100224.00;5077585;28;45599;-74
2023/03/25 01:01:38;;;;;;;;;0.00;0.00;;;;;10.79;67.47;100232.00;5076985;27;46721;-74
2023/03/25 01:04:10;;;;;;;;;1.00;0.00;;;;;10.89;67.30;100240.81;5077065;28;45692;-74
2023/03/25 01:06:36;;;;;;;;;1.00;0.00;;;;;10.90;67.56;100250.31;5077368;27;45561;-74
2023/03/25 01:09:05;;;;;;;;;3.00;0.00;;;;;10.89;67.71;100232.97;5093073;27;45613;-75
2023/03/25 01:11:37;;;;;;;;;1.25;1.00;;;;;10.92;67.52;100230.06;5077020;27;46181;-74
2023/03/25 01:14:05;;;;;;;;;1.00;0.00;;;;;10.92;67.75;100229.25;5077043;27;46162;-73
2023/03/25 01:19:52;;;;;;;;;1.00;0.00;;;;;10.89;67.67;100227.72;5069760;28;45870;-74
2023/03/25 01:22:17;;;;;;;;;1.00;0.25;;;;;10.98;68.21;100241.88;5076782;27;47453;-73
2023/03/25 01:24:43;;;;;;;;;2.00;0.25;;;;;10.88;68.05;100238.31;5076559;27;46799;-73
2023/03/25 01:27:08;;;;;;;;;0.00;0.00;;;;;10.94;68.19;100240.44;5077044;27;45538;-73
2023/03/25 01:29:33;;;;;;;;;2.25;1.00;;;;;10.94;68.22;100249.16;5076872;28;45593;-73
2023/03/25 01:31:59;;;;;;;;;0.25;0.00;;;;;10.97;68.08;100234.97;5076967;27;45741;-72
2023/03/25 01:34:24;;;;;;;;;0.00;0.00;;;;;10.92;68.78;100224.00;5076612;27;45652;-73
2023/03/25 01:36:50;;;;;;;;;0.25;0.00;;;;;10.93;68.30;100226.50;5075901;28;45745;-72
2023/03/25 01:39:17;;;;;;;;;1.25;0.00;;;;;10.93;68.58;100225.69;5076981;28;45518;-73
2023/03/25 01:41:47;;;;;;;;;1.00;1.00;;;;;10.89;68.46;100216.41;5076832;27;46339;-72
2023/03/25 01:44:13;;;;;;;;;2.00;0.25;;;;;10.96;68.61;100228.03;5075927;27;47015;-74
2023/03/25 01:50:00;;;;;;;;;3.00;0.25;;;;;10.96;68.50;100203.66;5076116;28;45647;-73
2023/03/25 01:52:27;;;;;;;;;1.75;0.00;;;;;10.96;68.56;100209.69;5076197;27;45530;-73
2023/03/25 01:54:56;;;;;;;;;2.25;1.00;;;;;10.96;68.37;100195.78;5076359;27;45976;-76
2023/03/25 01:57:23;;;;;;;;;1.25;0.25;;;;;10.96;69.09;100198.41;5076554;27;45771;-77
2023/03/25 02:06:07;;;;;;;;;1.25;1.00;;;;;10.97;68.75;100202.66;5075952;28;45733;-76
2023/03/25 02:08:38;;;;;;;;;0.00;0.00;;;;;10.99;68.83;100212.09;5076370;27;45580;-74
2023/03/25 02:11:05;;;;;;;;;2.50;1.00;;;;;10.90;68.97;100189.25;5076538;27;45589;-72
2023/03/25 02:13:32;;;;;;;;;0.50;0.00;;;;;10.89;69.07;100198.88;5075894;27;47313;-73
2023/03/25 02:16:29;;;;;;;;;1.00;1.00;;;;;10.96;68.89;100206.28;5076090;28;46204;-73
2023/03/25 02:19:13;;;;;;;;;1.25;0.75;;;;;10.94;69.12;100201.97;5061056;27;45673;-75
2023/03/25 02:21:51;;;;;;;;;6.00;1.00;;;;;10.94;69.13;100203.75;5076248;28;45628;-74
2023/03/25 02:24:56;;;;;;;;;1.00;0.25;;;;;10.95;69.30;100194.94;5074168;28;48852;-74
2023/03/25 02:27:40;;;;;;;;;1.00;0.75;;;;;10.94;69.34;100190.66;5076209;28;45648;-73
2023/03/25 02:33:44;;;;;;;;;0.25;0.00;;;;;10.85;69.53;100181.72;5075854;28;45622;-73
2023/03/25 02:36:18;;;;;;;;;1.00;0.00;;;;;10.92;69.42;100190.78;5075867;27;45612;-73
2023/03/25 02:38:56;;;;;;;;;3.00;1.50;;;;;10.89;69.54;100183.16;5075444;28;46408;-73
2023/03/25 02:41:26;;;;;;;;;2.25;0.50;;;;;10.89;69.53;100183.16;5076044;28;45755;-74
2023/03/25 02:44:22;;;;;;;;;1.00;1.00;;;;;10.89;70.00;100190.19;5075478;28;46241;-74
2023/03/25 02:50:18;;;;;;;;;2.50;1.00;;;;;10.89;69.52;100185.78;5075343;28;45670;-73
2023/03/25 02:52:50;;;;;;;;;1.00;0.00;;;;;10.88;69.63;100183.28;5075573;27;45485;-73
2023/03/25 02:55:19;;;;;;;;;1.75;1.00;;;;;10.84;69.64;100179.25;5075833;27;45584;-74
2023/03/25 02:57:51;;;;;;;;;1.50;0.00;;;;;10.88;69.63;100175.41;5075237;27;45909;-73
2023/03/25 03:00:22;;;;;;;;;3.00;1.00;;;;;10.84;69.65;100172.22;5075474;27;45683;-73
2023/03/25 03:06:16;;;;;;;;;2.25;1.00;;;;;10.83;69.65;100170.53;5074631;28;45657;-73
2023/03/25 03:08:47;;;;;;;;;1.00;0.25;;;;;10.91;69.69;100178.63;5075213;27;45867;-73
2023/03/25 03:11:39;;;;;;;;;1.00;0.00;;;;;10.91;69.71;100178.63;5075052;28;47197;-74
2023/03/25 03:14:23;;;;;;;;;1.25;0.00;;;;;10.92;69.80;100185.53;5075237;28;45745;-74
2023/03/25 03:16:57;;;;;;;;;1.00;1.00;;;;;10.93;69.65;100176.72;5075172;28;45613;-73
2023/03/25 03:19:22;;;;;;;;;0.25;0.25;;;;;10.93;69.80;100187.19;5075020;27;46552;-73
2023/03/25 03:22:00;;;;;;;;;2.75;1.00;;;;;10.92;69.89;100184.69;5075297;28;45660;-71
2023/03/25 03:24:39;;;;;;;;;1.00;0.00;;;;;10.91;69.90;100178.63;5075095;27;45791;-74
2023/03/25 03:27:13;;;;;;;;;3.00;1.50;;;;;10.90;70.13;100186.63;5075449;27;45511;-73
2023/03/25 03:29:47;;;;;;;;;1.00;1.00;;;;;10.87;70.12;100186.84;5090356;27;47866;-74
2023/03/25 03:32:28;;;;;;;;;1.75;1.00;;;;;10.87;70.06;100181.59;5074878;27;46522;-74
2023/03/25 03:34:59;;;;;;;;;2.00;1.00;;;;;10.85;70.07;100179.09;5074631;27;45462;-74
2023/03/25 03:37:31;;;;;;;;;0.75;0.75;;;;;10.71;69.80;100157.56;5075108;27;45684;-73
2023/03/25 03:39:57;;;;;;;;;1.00;0.00;;;;;10.90;69.87;100194.47;5075060;27;45621;-75
2023/03/25 03:42:46;;;;;;;;;0.50;0.00;;;;;10.93;69.85;100202.09;5074832;28;45424;-75
2023/03/25 03:45:41;;;;;;;;;1.00;0.00;;;;;10.92;69.75;100201.25;5074699;27;45570;-74
2023/03/25 03:48:15;;;;;;;;;1.00;0.00;;;;;10.92;69.80;100190.78;5090344;27;45680;-74
2023/03/25 03:50:49;;;;;;;;;1.00;0.00;;;;;10.95;69.60;100179.22;5074733;27;45761;-75
2023/03/25 03:53:33;;;;;;;;;0.00;0.00;;;;;10.96;69.71;100193.16;5074327;27;47340;-74
2023/03/25 03:56:06;;;;;;;;;1.75;0.50;;;;;10.97;69.72;100197.44;5074621;27;45684;-75
2023/03/25 03:58:37;;;;;;;;;0.00;0.00;;;;;10.96;69.73;100190.53;5074966;27;45602;-74
2023/03/25 04:01:10;;;;;;;;;1.00;0.00;;;;;10.96;69.57;100212.31;5074163;27;45762;-74
2023/03/25 04:03:56;;;;;;;;;2.00;1.00;;;;;10.96;69.79;100203.66;5074189;27;46277;-74
2023/03/25 04:06:40;;;;;;;;;2.50;0.75;;;;;10.95;69.60;100200.19;5090125;27;45806;-74
2023/03/25 04:09:35;;;;;;;;;0.00;0.00;;;;;10.93;69.49;100202.91;5074488;28;45639;-74
2023/03/25 04:12:10;;;;;;;;;1.00;1.00;;;;;10.86;69.51;100196.50;5074529;27;45581;-74
2023/03/25 04:14:37;;;;;;;;;0.75;0.00;;;;;10.83;69.23;100202.00;5074208;27;46381;-74
2023/03/25 04:20:28;;;;;;;;;0.25;0.00;;;;;10.97;69.01;100221.00;5068449;28;45640;-74
2023/03/25 04:22:54;;;;;;;;;0.25;0.00;;;;;10.92;69.00;100214.34;5073872;28;45560;-74
2023/03/25 04:25:24;;;;;;;;;0.25;0.00;;;;;10.98;69.14;100215.66;5073847;27;45598;-76
2023/03/25 04:27:52;;;;;;;;;1.00;0.00;;;;;11.03;68.90;100217.91;5074328;27;45690;-74
2023/03/25 04:30:18;;;;;;;;;1.00;0.00;;;;;11.03;68.77;100218.75;5074395;28;45698;-76
2023/03/25 04:36:05;;;;;;;;;0.00;0.00;;;;;11.10;68.40;100224.34;5073947;28;46016;-73
2023/03/25 04:38:31;;;;;;;;;1.75;0.00;;;;;11.14;68.29;100228.38;5073916;27;45606;-74
2023/03/25 04:40:57;;;;;;;;;0.00;0.00;;;;;11.16;68.45;100234.34;5090321;27;45565;-74
2023/03/25 04:43:22;;;;;;;;;0.00;0.00;;;;;11.13;68.30;100226.72;5073761;27;46536;-74
2023/03/25 04:45:52;;;;;;;;;0.00;0.00;;;;;11.19;68.13;100245.41;5073615;27;47272;-74
2023/03/25 04:51:48;;;;;;;;;0.25;0.00;;;;;11.14;68.26;100242.31;5073976;28;45806;-73
2023/03/25 04:54:14;;;;;;;;;0.00;0.00;;;;;11.12;68.16;100249.47;5073310;27;47302;-74
2023/03/25 04:56:39;;;;;;;;;0.25;0.00;;;;;11.13;68.18;100251.16;5073754;28;45620;-74
2023/03/25 04:59:05;;;;;;;;;0.00;0.00;;;;;11.14;68.07;100259.84;5072380;27;46129;-74
2023/03/25 05:01:30;;;;;;;;;0.00;0.00;;;;;11.10;67.96;100253.19;5074039;27;45639;-74
2023/03/25 05:07:18;;;;;;;;;1.75;0.00;;;;;11.03;68.49;100246.75;5073459;28;45995;-74
2023/03/25 05:09:43;;;;;;;;;0.75;0.00;;;;;10.96;68.61;100256.88;5089195;27;45630;-74
2023/03/25 05:12:10;;;;;;;;;1.00;0.00;;;;;10.97;67.92;100255.09;5073815;28;45675;-72
2023/03/25 05:14:35;;;;;;;;;0.00;0.00;;;;;10.96;67.59;100256.06;5073163;28;46433;-74
2023/03/25 05:17:01;;;;;;;;;0.75;0.00;;;;;10.98;67.86;100267.25;5073252;28;46093;-75
2023/03/25 05:23:30;;;;;;;;;0.25;0.00;;;;;10.92;68.71;100266.78;5068580;28;46641;-75
2023/03/25 05:25:55;;;;;;;;;0.00;0.00;;;;;10.83;67.14;100256.19;5073371;28;45594;-74
2023/03/25 05:28:21;;;;;;;;;0.00;0.00;;;;;10.90;67.32;100262.63;5074970;28;46137;-73
2023/03/25 05:30:46;;;;;;;;;2.00;0.75;;;;;10.90;67.01;100267.88;5076749;27;45666;-75
2023/03/25 05:33:14;;;;;;;;;1.00;0.00;;;;;10.88;67.21;100286.31;5076705;27;45955;-74
2023/03/25 05:35:41;;;;;;;;;0.50;0.00;;;;;10.91;67.05;100280.00;5076341;27;47439;-76
2023/03/25 05:38:07;;;;;;;;;1.00;0.00;;;;;10.93;66.89;100284.19;5075481;28;48282;-74
2023/03/25 05:40:33;;;;;;;;;1.00;0.00;;;;;10.87;66.87;100278.56;5076611;27;45642;-75
2023/03/25 05:42:59;;;;;;;;;0.00;0.00;;;;;10.92;66.95;100295.59;5076876;27;45703;-74
2023/03/25 05:45:24;;;;;;;;;5.00;0.00;;;;;10.96;66.85;100300.63;5076386;27;47865;-76
2023/03/25 05:47:51;;;;;;;;;1.00;0.25;;;;;10.97;66.82;100308.34;5076775;27;45654;-74
2023/03/25 05:53:38;;;;;;;;;0.75;0.00;;;;;11.01;66.58;100320.28;5076349;28;45646;-75
2023/03/25 05:56:04;;;;;;;;;0.00;0.00;;;;;11.04;66.67;100313.97;5074952;28;47135;-77
2023/03/25 05:58:31;;;;;;;;;0.00;0.00;;;;;11.04;66.98;100325.28;5076605;27;45749;-77
2023/03/25 06:00:59;;;;;;;;;2.25;0.75;;;;;11.00;66.97;100312.53;5076708;27;45550;-77
2023/03/25 06:03:26;;;;;;;;;1.00;0.00;;;;;11.02;66.65;100321.94;5075366;28;45620;-78
2023/03/25 06:05:53;;;;;;;;;1.00;0.00;;;;;11.01;66.42;100329.94;5076347;27;45584;-75
2023/03/25 06:08:24;;;;;;;;;0.00;0.00;;;;;10.96;66.59;100321.59;5092009;27;48437;-76
2023/03/25 06:11:00;;;;;;;;;1.00;0.00;;;;;10.98;67.65;100343.25;5074721;28;46210;-76
2023/03/25 06:13:26;;;;;;;;;2.00;0.00;;;;;10.92;67.16;100331.47;5076212;27;45621;-77
2023/03/25 06:15:55;;;;;;;;;0.50;0.00;;;;;10.90;67.02;100334.19;5091759;27;47548;-75
2023/03/25 06:18:23;;;;;;;;;0.00;0.00;;;;;10.81;67.36;100328.81;5075760;27;47190;-74
2023/03/25 06:24:10;;;;;;;;;1.00;0.00;;;;;10.79;67.58;100357.78;5065080;28;45728;-74
2023/03/25 06:26:35;;;;;;;;;0.00;0.00;;;;;10.77;67.45;100359.69;5091528;27;47534;-74
2023/03/25 06:29:02;;;;;;;;;1.00;0.00;;;;;10.71;67.80;100344.41;5075824;28;47022;-74
2023/03/25 06:31:32;;;;;;;;;1.00;0.00;;;;;10.71;67.77;100359.31;5076222;28;45588;-75
2023/03/25 06:33:57;;;;;;;;;0.00;0.00;;;;;10.76;68.43;100378.97;5076017;28;45663;-76
2023/03/25 06:36:24;;;;;;;;;0.50;0.00;;;;;10.73;68.25;100373.13;5075865;28;46362;-74
2023/03/25 06:38:50;;;;;;;;;1.00;0.00;;;;;10.70;67.90;100374.19;5090494;27;46982;-75
2023/03/25 06:41:20;;;;;;;;;1.25;0.00;;;;;10.70;68.08;100375.97;5075351;27;45537;-74
2023/03/25 06:43:47;;;;;;;;;1.00;0.00;;;;;10.69;68.26;100380.38;5075630;27;45785;-74
2023/03/25 06:46:14;;;;;;;;;3.75;0.00;;;;;10.65;68.21;100378.94;5076139;27;46966;-75
2023/03/25 06:48:39;;;;;;;;;0.00;0.00;;;;;10.72;68.03;100381.94;5075744;27;46034;-74
2023/03/25 06:54:26;;;;;;;;;0.00;0.00;;;;;10.74;67.82;100382.66;5075610;28;45663;-76
2023/03/25 06:56:52;;;;;;;;;0.00;0.00;;;;;10.80;67.81;100396.13;5075803;28;45731;-75
2023/03/25 06:59:17;;;;;;;;;0.00;0.00;;;;;10.83;67.84;100392.44;5075693;28;45949;-75
2023/03/25 07:01:42;;;;;;;;;1.25;0.00;;;;;10.85;67.55;100378.25;5075720;27;45841;-74
2023/03/25 07:04:07;;;;;;;;;0.00;0.00;;;;;10.91;67.92;100383.03;5073565;28;45916;-71
2023/03/25 07:06:33;;;;;;;;;1.00;0.00;;;;;10.93;67.58;100383.78;5075444;27;46373;-74
2023/03/25 07:08:58;;;;;;;;;0.75;0.25;;;;;10.92;67.49;100391.75;5075173;27;47460;-75
2023/03/25 07:11:29;;;;;;;;;1.00;0.00;;;;;10.91;67.64;100397.94;5075330;28;45586;-76
2023/03/25 07:13:55;;;;;;;;;1.00;0.00;;;;;10.93;67.47;100388.19;5075664;28;45512;-78
2023/03/25 07:16:21;;;;;;;;;1.25;0.00;;;;;10.99;67.17;100394.75;5075531;27;45612;-75
2023/03/25 07:18:49;;;;;;;;;1.00;0.00;;;;;11.02;67.49;100397.09;5075307;28;46072;-74
2023/03/25 07:24:36;;;;;;;;;0.00;0.00;;;;;11.10;67.09;100400.84;5070770;28;45736;-77
2023/03/25 07:27:01;;;;;;;;;1.00;0.00;;;;;11.07;66.75;100398.44;5074200;28;47837;-76
2023/03/25 07:29:26;;;;;;;;;0.25;0.00;;;;;11.12;66.69;100387.63;5075226;28;46117;-75
2023/03/25 07:31:52;;;;;;;;;0.00;0.00;;;;;11.06;67.45;100385.47;5075034;27;45632;-77
2023/03/25 07:34:17;;;;;;;;;2.00;0.00;;;;;11.07;66.87;100397.59;5090587;27;45580;-73
2023/03/25 07:40:05;;;;;;;;;1.75;0.00;;;;;11.10;66.51;100402.63;5074785;28;45995;-75
2023/03/25 07:42:31;;;;;;;;;0.50;0.00;;;;;11.16;65.82;100413.47;5074868;27;45605;-74
2023/03/25 07:44:56;;;;;;;;;0.00;0.00;;;;;11.23;66.22;100411.19;5074942;27;45697;-75
2023/03/25 07:47:21;;;;;;;;;0.00;0.00;;;;;11.32;66.37;100434.13;5074751;28;46445;-74
2023/03/25 07:49:48;;;;;;;;;0.00;0.00;;;;;11.35;67.77;100436.50;5074414;28;48810;-73
2023/03/25 07:52:14;;;;;;;;;0.25;0.00;;;;;11.33;66.00;100420.06;5089487;27;45480;-74
2023/03/25 07:54:39;;;;;;;;;2.00;0.00;;;;;11.41;66.57;100438.63;5074311;28;45883;-75
2023/03/25 07:57:04;;;;;;;;;0.25;0.25;;;;;11.43;66.87;100444.63;5074281;27;46764;-73
2023/03/25 07:59:31;;;;;;;;;1.50;0.00;;;;;11.39;67.25;100430.03;5074420;27;47080;-74
2023/03/25 08:01:57;;;;;;;;;1.75;0.00;;;;;11.44;66.65;100451.53;5074429;28;45702;-73
2023/03/25 08:04:22;;;;;;;;;0.00;0.00;;;;;11.45;66.84;100453.19;5074203;27;45676;-75
2023/03/25 08:10:09;;;;;;;;;0.25;0.00;;;;;11.54;65.21;100434.13;5073512;28;45941;-73
2023/03/25 08:12:36;;;;;;;;;2.00;0.00;;;;;11.57;64.97;100451.41;5089445;27;45675;-74
2023/03/25 08:15:01;;;;;;;;;0.75;0.00;;;;;11.58;64.91;100447.84;5074358;28;45686;-73
2023/03/25 08:17:26;;;;;;;;;0.00;0.00;;;;;11.64;64.92;100452.59;5074136;28;46396;-72
2023/03/25 08:19:52;;;;;;;;;0.00;0.00;;;;;11.69;64.66;100455.72;5074114;28;45632;-73
2023/03/25 08:25:42;;;;;;;;;0.00;0.00;;;;;11.76;66.04;100449.06;5063120;28;46762;-73
2023/03/25 08:28:07;;;;;;;;;1.00;0.00;;;;;11.85;65.60;100465.88;5073914;27;45535;-72
2023/03/25 08:30:37;;;;;;;;;0.25;0.00;;;;;11.91;64.15;100466.22;5073667;28;45588;-73
2023/03/25 08:33:06;;;;;;;;;0.75;0.00;;;;;11.98;67.16;100474.47;5073663;28;45746;-73
2023/03/25 08:35:34;;;;;;;;;0.75;0.00;;;;;12.00;63.91;100441.03;5074299;28;45455;-73
2023/03/25 08:38:00;;;;;;;;;0.00;0.00;;;;;12.04;64.09;100468.69;5074317;27;46744;-73
2023/03/25 08:40:26;;;;;;;;;0.50;0.00;;;;;12.05;64.75;100468.59;5073778;27;46054;-74
2023/03/25 08:42:52;;;;;;;;;1.00;0.00;;;;;12.13;64.67;100468.81;5073916;27;45666;-73
2023/03/25 08:45:17;;;;;;;;;1.00;1.00;;;;;12.11;64.84;100467.25;5072394;28;46041;-73
2023/03/25 08:47:44;;;;;;;;;0.25;0.00;;;;;12.12;64.28;100480.28;5073526;27;47550;-72
2023/03/25 08:50:10;;;;;;;;;0.00;0.00;;;;;12.03;64.32;100457.38;5073655;28;46130;-72
2023/03/25 08:55:57;;;;;;;;;0.00;0.00;;;;;12.23;65.72;100494.34;5073796;28;45627;-74
2023/03/25 08:58:24;;;;;;;;;0.00;0.00;;;;;12.23;65.57;100478.59;5073826;27;45893;-73
2023/03/25 09:00:53;;;;;;;;;0.50;0.00;;;;;12.13;63.70;100452.22;5073341;27;46579;-74
2023/03/25 09:03:19;;;;;;;;;0.50;0.00;;;;;12.22;63.37;100469.88;5075290;27;45822;-73
2023/03/25 09:05:45;;;;;;;;;0.50;0.00;;;;;12.25;64.21;100458.28;5077282;27;45782;-74
2023/03/25 09:08:10;;;;;;;;;0.75;0.00;;;;;12.25;62.80;100463.53;5076886;28;45704;-73
2023/03/25 09:10:36;;;;;;;;;0.25;0.00;;;;;12.24;63.04;100465.34;5077253;28;46466;-73
2023/03/25 09:13:01;;;;;;;;;1.00;0.00;;;;;12.24;62.61;100456.63;5076283;27;45599;-74
2023/03/25 09:15:26;;;;;;;;;0.25;0.25;;;;;12.33;62.57;100469.00;5076971;27;45730;-71
2023/03/25 09:17:52;;;;;;;;;1.50;0.00;;;;;12.38;62.12;100485.22;5076847;27;47504;-72
2023/03/25 09:20:17;;;;;;;;;1.50;0.00;;;;;12.38;63.33;100480.81;5077160;27;46179;-75
2023/03/25 09:26:04;;;;;;;;;0.25;0.00;;;;;12.39;61.70;100464.09;5071696;28;45726;-73
2023/03/25 09:28:30;;;;;;;;;0.00;0.00;;;;;12.36;61.91;100466.16;5076652;27;45778;-73
2023/03/25 09:30:56;;;;;;;;;2.00;0.00;;;;;12.53;62.56;100476.94;5092687;27;46227;-72
2023/03/25 09:33:21;;;;;;;;;2.00;0.00;;;;;12.49;60.63;100470.28;5076211;28;45642;-79
2023/03/25 09:35:47;;;;;;;;;1.25;0.50;;;;;12.62;61.32;100493.78;5077107;27;45703;-77
2023/03/25 09:42:07;;;;;;;;;0.50;0.50;;;;;12.72;62.00;100489.44;5076741;28;45661;-78
2023/03/25 09:45:00;;;;;;;;;0.00;0.00;;;;;12.78;63.18;100535.41;5076074;27;45780;-72
2023/03/25 09:47:32;;;;;;;;;0.00;0.00;;;;;12.81;60.58;100490.44;5076338;28;45603;-72
2023/03/25 09:50:00;;;;;;;;;0.00;0.00;;;;;12.84;61.28;100498.94;5076423;27;47320;-74
2023/03/25 09:52:33;;;;;;;;;0.00;0.00;;;;;12.87;60.07;100511.00;5076501;27;46228;-73
2023/03/25 09:55:05;;;;;;;;;0.00;0.00;;;;;12.85;60.73;100516.38;5076398;27;45612;-73
2023/03/25 09:57:36;;;;;;;;;0.50;0.00;;;;;12.87;60.54;100529.41;5076876;28;45641;-74
2023/03/25 10:00:05;;;;;;;;;0.75;0.00;;;;;12.92;60.23;100522.78;5076265;27;46606;-73
2023/03/25 10:02:45;;;;;;;;;0.50;0.00;;;;;12.97;59.86;100504.00;5075980;27;46216;-73
2023/03/25 10:05:17;;;;;;;;;1.50;0.00;;;;;13.00;59.84;100525.66;5076223;28;45684;-74
2023/03/25 10:08:07;;;;;;;;;0.00;0.00;;;;;12.99;61.46;100581.00;5076445;27;45601;-73
2023/03/25 10:10:54;;;;;;;;;0.75;0.75;;;;;12.95;60.57;100538.34;5076138;28;47246;-75
2023/03/25 10:13:57;;;;;;;;;2.00;1.00;;;;;12.98;61.38;100518.84;5091303;27;48250;-79
2023/03/25 10:16:39;;;;;;;;;1.00;0.00;;;;;13.04;61.32;100523.59;5075953;27;45782;-76
2023/03/25 10:19:30;;;;;;;;;0.00;0.00;;;;;13.03;61.36;100533.28;5092048;27;45951;-72
2023/03/25 10:25:23;;;;;;;;;1.00;0.00;;;;;13.12;61.80;100518.53;5075659;28;45659;-73
2023/03/25 10:27:51;;;;;;;;;1.00;0.00;;;;;13.08;61.08;100532.88;5075882;27;45737;-76
2023/03/25 10:30:20;;;;;;;;;0.00;0.00;;;;;13.20;59.97;100533.69;5075487;27;45724;-72
2023/03/25 10:32:51;;;;;;;;;1.00;0.00;;;;;13.24;59.41;100535.09;5075734;28;46701;-73
2023/03/25 10:35:24;;;;;;;;;0.25;0.00;;;;;13.34;59.98;100523.69;5075616;27;46458;-72
2023/03/25 10:41:34;;;;;;;;;0.00;0.00;;;;;13.56;58.45;100525.34;5076023;28;45716;-77
2023/03/25 10:43:59;;;;;;;;;1.25;0.00;;;;;13.66;58.69;100539.38;5075242;28;46541;-74
2023/03/25 10:46:46;;;;;;;;;1.00;0.00;;;;;13.77;60.11;100535.84;5075617;28;46173;-71
2023/03/25 10:49:20;;;;;;;;;1.00;0.00;;;;;13.76;60.90;100536.84;5075510;27;45613;-72
2023/03/25 10:51:52;;;;;;;;;0.50;0.00;;;;;13.80;58.67;100528.53;5075587;27;45798;-77
2023/03/25 10:57:39;;;;;;;;;1.00;0.50;;;;;13.93;58.34;100523.03;5075409;28;46026;-78
2023/03/25 11:00:17;;;;;;;;;1.25;1.00;;;;;14.03;59.00;100534.47;5075237;27;45518;-75
2023/03/25 11:02:44;;;;;;;;;1.00;0.00;;;;;14.07;57.99;100519.22;5075218;27;45798;-74
2023/03/25 11:05:13;;;;;;;;;0.00;0.00;;;;;14.10;57.39;100532.94;5075091;27;47610;-74
2023/03/25 11:13:55;;;;;;;;;0.00;0.00;;;;;14.22;56.56;100516.06;5074998;28;45592;-74
2023/03/25 11:16:21;;;;;;;;;0.75;0.00;;;;;14.31;56.69;100532.84;5090628;27;47541;-71
2023/03/25 11:18:47;;;;;;;;;1.00;0.00;;;;;14.33;57.18;100541.47;5074841;27;46305;-75
2023/03/25 11:21:13;;;;;;;;;0.00;0.00;;;;;14.34;56.50;100531.78;5075015;28;45610;-76
2023/03/25 11:23:48;;;;;;;;;3.75;0.25;;;;;14.37;56.07;100553.44;5074528;28;45596;-75
2023/03/25 11:26:39;;;;;;;;;1.00;0.00;;;;;14.38;56.28;100535.81;5073360;27;46442;-73
2023/03/25 11:29:11;;;;;;;;;1.00;1.00;;;;;14.36;56.33;100537.75;5074346;27;46277;-74
2023/03/25 11:31:37;;;;;;;;;1.25;0.75;;;;;14.41;57.16;100541.69;5073974;27;45521;-74
2023/03/25 11:34:25;;;;;;;;;1.00;1.00;;;;;14.46;55.90;100555.28;5074481;27;45536;-77
2023/03/25 11:37:00;;;;;;;;;0.00;0.00;;;;;14.46;55.29;100550.03;5032342;28;45658;-76
2023/03/25 11:39:33;;;;;;;;;2.25;0.25;;;;;14.55;57.05;100532.53;5032541;28;45897;-77
2023/03/25 11:42:09;;;;;;;;;0.00;0.00;;;;;14.55;57.43;100546.56;5032182;28;46008;-75
2023/03/25 11:44:34;;;;;;;;;1.00;0.75;;;;;14.56;56.25;100548.22;5032647;28;45769;-77
2023/03/25 11:47:03;;;;;;;;;0.00;0.00;;;;;14.54;55.84;100544.03;5032896;28;45640;-77
2023/03/25 11:49:40;;;;;;;;;1.00;0.50;;;;;14.50;57.68;100509.22;5031985;28;47096;-76
2023/03/25 11:52:16;;;;;;;;;1.00;0.00;;;;;14.44;56.35;100528.22;5032049;28;45791;-77
2023/03/25 11:54:43;;;;;;;;;0.00;0.00;;;;;14.35;56.46;100547.47;5015515;28;45504;-75
2023/03/25 11:57:15;;;;;;;;;1.50;0.25;;;;;14.37;57.36;100544.69;5031920;28;46606;-76
2023/03/25 11:59:48;;;;;;;;;1.00;0.00;;;;;14.36;58.43;100572.81;5031179;28;46866;-72
2023/03/25 12:02:26;;;;;;;;;0.75;0.00;;;;;14.32;57.84;100565.31;5030886;28;45602;-73
2023/03/25 12:04:57;;;;;;;;;1.00;0.00;;;;;14.34;58.07;100566.03;5031563;28;45697;-72
2023/03/25 12:07:23;;;;;;;;;1.00;0.25;;;;;14.33;57.00;100567.00;5031702;28;47527;-73
2023/03/25 12:10:04;;;;;;;;;1.00;0.00;;;;;14.33;56.80;100552.03;5031930;28;46023;-74
2023/03/25 12:12:38;;;;;;;;;1.00;0.00;;;;;14.40;56.64;100553.19;5014852;28;45737;-73
2023/03/25 12:15:48;;;;;;;;;1.00;0.00;;;;;14.48;56.84;100547.22;5073951;27;45787;-73
2023/03/25 12:18:26;;;;;;;;;0.75;0.00;;;;;14.44;57.03;100549.31;5031366;28;47602;-74
2023/03/25 12:21:02;;;;;;;;;0.25;0.00;;;;;14.48;56.41;100536.69;5031325;28;46968;-73
2023/03/25 12:27:12;;;;;;;;;0.00;0.00;;;;;14.64;56.42;100552.81;5025801;28;45949;-74
2023/03/25 12:30:05;;;;;;;;;1.00;0.00;;;;;14.56;57.29;100540.31;5030855;28;47538;-75
2023/03/25 12:32:53;;;;;;;;;1.00;0.00;;;;;14.53;57.83;100543.22;5031142;28;47024;-75
2023/03/25 12:35:30;;;;;;;;;0.25;0.00;;;;;14.48;58.85;100544.59;5030792;28;45646;-74
2023/03/25 12:37:55;;;;;;;;;0.25;0.00;;;;;14.49;57.99;100544.47;5031238;28;45650;-73
2023/03/25 12:40:38;;;;;;;;;0.00;0.00;;;;;14.50;58.13;100559.31;5031010;28;46944;-76
2023/03/25 12:43:54;;;;;;;;;1.00;0.25;;;;;14.49;56.96;100541.00;5014277;28;48390;-76
2023/03/25 12:46:33;;;;;;;;;4.25;2.00;;;;;14.59;56.47;100523.38;4974835;28;45813;-73
2023/03/25 12:49:08;;;;;;;;;0.75;0.00;;;;;14.67;56.22;100534.09;4991527;28;45866;-75
2023/03/25 12:52:04;;;;;;;;;0.75;0.00;;;;;14.68;55.72;100512.84;5002523;28;45734;-72
2023/03/25 12:54:32;;;;;;;;;0.50;0.00;;;;;14.83;54.96;100526.47;4952158;28;45773;-73
2023/03/25 12:57:00;;;;;;;;;0.00;0.00;;;;;14.89;54.31;100519.81;4952204;28;45885;-73
2023/03/25 12:59:54;;;;;;;;;0.25;0.00;;;;;14.96;54.35;100507.72;4952692;28;45652;-72
2023/03/25 13:02:51;;;;;;;;;0.00;0.00;;;;;15.06;54.23;100511.19;4952077;28;46278;-72
2023/03/25 13:05:17;;;;;;;;;1.00;0.00;;;;;15.14;55.39;100521.88;4951966;28;47208;-72
2023/03/25 13:07:47;;;;;;;;;0.75;0.75;;;;;15.15;54.43;100512.16;4951754;28;45844;-73
2023/03/25 13:13:47;;;;;;;;;0.50;0.50;;;;;15.21;53.80;100498.41;4949325;28;45974;-71
2023/03/25 13:16:17;;;;;;;;;0.75;0.00;;;;;15.16;53.50;100542.84;4950656;28;46386;-73
2023/03/25 13:18:46;;;;;;;;;1.50;0.00;;;;;15.17;55.21;100547.97;4951324;28;45820;-72
2023/03/25 13:21:23;;;;;;;;;0.75;0.25;;;;;15.17;54.83;100531.34;4951054;28;45541;-73
2023/03/25 13:23:55;;;;;;;;;2.00;1.50;;;;;15.25;54.66;100510.31;4976346;28;46853;-74
2023/03/25 13:30:30;;;;;;;;;1.00;1.00;;;;;15.18;53.80;100514.50;4993692;28;45788;-74